sensor_id;sensor_type;location;lat;lon;timestamp;P1;P2;P0
82622;PMS5003;72291;55.002;-1.592;2023-12-04T00:00:23;43;40;
82622;PMS5003;72291;55.002;-1.592;2023-12-04T00:02:49;43;39;
82622;PMS5003;72291;55.002;-1.592;2023-12-04T00:05:14;41;39;
82622;PMS5003;72291;55.002;-1.592;2023-12-04T00:07:40;41;39;
82622;PMS5003;72291;55.002;-1.592;2023-12-04T00:10:06;49;42;
82622;PMS5003;72291;55.002;-1.592;2023-12-04T00:12:31;36;33;
82622;PMS5003;72291;55.002;-1.592;2023-12-04T00:14:56;41;34;
82622;PMS5003;72291;55.002;-1.592;2023-12-04T00:17:22;52;43;
82622;PMS5003;72291;55.002;-1.592;2023-12-04T00:19:47;45;43;
82622;PMS5003;72291;55.002;-1.592;2023-12-04T00:22:13;54;48;
82622;PMS5003;72291;55.002;-1.592;2023-12-04T00:24:38;44;43;
82622;PMS5003;72291;55.002;-1.592;2023-12-04T00:27:03;43;41;
82622;PMS5003;72291;55.002;-1.592;2023-12-04T00:29:29;42;38;
82622;PMS5003;72291;55.002;-1.592;2023-12-04T00:31:54;41;37;
82622;PMS5003;72291;55.002;-1.592;2023-12-04T00:34:19;49;46;
82622;PMS5003;72291;55.002;-1.592;2023-12-04T00:36:44;45;43;
82622;PMS5003;72291;55.002;-1.592;2023-12-04T00:39:10;46;40;
82622;PMS5003;72291;55.002;-1.592;2023-12-04T00:41:35;51;45;
82622;PMS5003;72291;55.002;-1.592;2023-12-04T00:44:00;50;45;
82622;PMS5003;72291;55.002;-1.592;2023-12-04T00:46:25;44;39;
82622;PMS5003;72291;55.002;-1.592;2023-12-04T00:48:51;44;41;
82622;PMS5003;72291;55.002;-1.592;2023-12-04T00:51:17;45;44;
82622;PMS5003;72291;55.002;-1.592;2023-12-04T00:53:46;47;44;
82622;PMS5003;72291;55.002;-1.592;2023-12-04T00:56:08;50;45;
82622;PMS5003;72291;55.002;-1.592;2023-12-04T00:58:32;52;46;
82622;PMS5003;72291;55.002;-1.592;2023-12-04T01:00:58;39;37;
82622;PMS5003;72291;55.002;-1.592;2023-12-04T01:03:28;48;44;
82622;PMS5003;72291;55.002;-1.592;2023-12-04T01:05:49;45;42;
82622;PMS5003;72291;55.002;-1.592;2023-12-04T01:08:14;42;40;
82622;PMS5003;72291;55.002;-1.592;2023-12-04T01:10:40;47;44;
82622;PMS5003;72291;55.002;-1.592;2023-12-04T01:13:05;44;44;
82622;PMS5003;72291;55.002;-1.592;2023-12-04T01:15:31;52;39;
82622;PMS5003;72291;55.002;-1.592;2023-12-04T01:17:56;48;43;
82622;PMS5003;72291;55.002;-1.592;2023-12-04T01:20:21;53;45;
82622;PMS5003;72291;55.002;-1.592;2023-12-04T01:22:47;51;50;
82622;PMS5003;72291;55.002;-1.592;2023-12-04T01:25:12;60;47;
82622;PMS5003;72291;55.002;-1.592;2023-12-04T01:27:38;54;47;
82622;PMS5003;72291;55.002;-1.592;2023-12-04T01:30:04;45;44;
82622;PMS5003;72291;55.002;-1.592;2023-12-04T01:32:29;43;39;
82622;PMS5003;72291;55.002;-1.592;2023-12-04T01:34:54;46;44;
82622;PMS5003;72291;55.002;-1.592;2023-12-04T01:37:20;56;44;
82622;PMS5003;72291;55.002;-1.592;2023-12-04T01:39:46;51;44;
82622;PMS5003;72291;55.002;-1.592;2023-12-04T01:42:11;50;45;
82622;PMS5003;72291;55.002;-1.592;2023-12-04T01:44:36;52;51;
82622;PMS5003;72291;55.002;-1.592;2023-12-04T01:47:02;46;41;
82622;PMS5003;72291;55.002;-1.592;2023-12-04T01:49:28;43;42;
82622;PMS5003;72291;55.002;-1.592;2023-12-04T01:51:54;44;42;
82622;PMS5003;72291;55.002;-1.592;2023-12-04T01:54:19;44;40;
82622;PMS5003;72291;55.002;-1.592;2023-12-04T01:56:45;49;44;
82622;PMS5003;72291;55.002;-1.592;2023-12-04T01:59:10;48;43;
82622;PMS5003;72291;55.002;-1.592;2023-12-04T02:01:35;42;41;
82622;PMS5003;72291;55.002;-1.592;2023-12-04T02:04:01;41;38;
82622;PMS5003;72291;55.002;-1.592;2023-12-04T02:06:27;51;49;
82622;PMS5003;72291;55.002;-1.592;2023-12-04T02:08:52;52;46;
82622;PMS5003;72291;55.002;-1.592;2023-12-04T02:11:17;47;42;
82622;PMS5003;72291;55.002;-1.592;2023-12-04T02:13:42;42;40;
82622;PMS5003;72291;55.002;-1.592;2023-12-04T02:16:13;44;40;
82622;PMS5003;72291;55.002;-1.592;2023-12-04T02:18:33;47;42;
82622;PMS5003;72291;55.002;-1.592;2023-12-04T02:21:00;46;45;
82622;PMS5003;72291;55.002;-1.592;2023-12-04T02:23:24;40;37;
82622;PMS5003;72291;55.002;-1.592;2023-12-04T02:25:50;50;45;
82622;PMS5003;72291;55.002;-1.592;2023-12-04T02:28:15;40;38;
82622;PMS5003;72291;55.002;-1.592;2023-12-04T02:30:41;43;41;
82622;PMS5003;72291;55.002;-1.592;2023-12-04T02:33:07;43;41;
82622;PMS5003;72291;55.002;-1.592;2023-12-04T02:35:32;43;41;
82622;PMS5003;72291;55.002;-1.592;2023-12-04T02:37:57;39;36;
82622;PMS5003;72291;55.002;-1.592;2023-12-04T02:40:23;37;36;
82622;PMS5003;72291;55.002;-1.592;2023-12-04T02:42:48;36;34;
82622;PMS5003;72291;55.002;-1.592;2023-12-04T02:45:14;45;37;
82622;PMS5003;72291;55.002;-1.592;2023-12-04T02:47:39;45;42;
82622;PMS5003;72291;55.002;-1.592;2023-12-04T02:50:05;44;37;
82622;PMS5003;72291;55.002;-1.592;2023-12-04T02:52:30;42;39;
82622;PMS5003;72291;55.002;-1.592;2023-12-04T02:54:55;50;47;
82622;PMS5003;72291;55.002;-1.592;2023-12-04T02:57:21;38;37;
82622;PMS5003;72291;55.002;-1.592;2023-12-04T02:59:46;43;40;
82622;PMS5003;72291;55.002;-1.592;2023-12-04T03:02:11;41;36;
82622;PMS5003;72291;55.002;-1.592;2023-12-04T03:04:37;39;39;
82622;PMS5003;72291;55.002;-1.592;2023-12-04T03:07:02;49;44;
82622;PMS5003;72291;55.002;-1.592;2023-12-04T03:09:27;38;34;
82622;PMS5003;72291;55.002;-1.592;2023-12-04T03:11:53;35;35;
82622;PMS5003;72291;55.002;-1.592;2023-12-04T03:14:18;37;35;
82622;PMS5003;72291;55.002;-1.592;2023-12-04T03:16:44;46;40;
82622;PMS5003;72291;55.002;-1.592;2023-12-04T03:19:09;44;36;
82622;PMS5003;72291;55.002;-1.592;2023-12-04T03:21:35;32;30;
82622;PMS5003;72291;55.002;-1.592;2023-12-04T03:24:01;31;30;
82622;PMS5003;72291;55.002;-1.592;2023-12-04T03:26:26;36;34;
82622;PMS5003;72291;55.002;-1.592;2023-12-04T03:28:52;30;29;
82622;PMS5003;72291;55.002;-1.592;2023-12-04T03:31:18;36;36;
82622;PMS5003;72291;55.002;-1.592;2023-12-04T03:33:43;35;29;
82622;PMS5003;72291;55.002;-1.592;2023-12-04T03:36:13;37;36;
82622;PMS5003;72291;55.002;-1.592;2023-12-04T03:38:34;35;32;
82622;PMS5003;72291;55.002;-1.592;2023-12-04T03:40:59;40;35;
82622;PMS5003;72291;55.002;-1.592;2023-12-04T03:43:24;42;38;
82622;PMS5003;72291;55.002;-1.592;2023-12-04T03:45:50;32;30;
82622;PMS5003;72291;55.002;-1.592;2023-12-04T03:48:15;39;34;
82622;PMS5003;72291;55.002;-1.592;2023-12-04T03:50:41;32;31;
82622;PMS5003;72291;55.002;-1.592;2023-12-04T03:53:06;36;34;
82622;PMS5003;72291;55.002;-1.592;2023-12-04T03:55:31;32;30;
82622;PMS5003;72291;55.002;-1.592;2023-12-04T03:57:57;32;31;
82622;PMS5003;72291;55.002;-1.592;2023-12-04T04:00:22;31;28;
82622;PMS5003;72291;55.002;-1.592;2023-12-04T04:02:48;41;35;
82622;PMS5003;72291;55.002;-1.592;2023-12-04T04:05:13;38;36;
82622;PMS5003;72291;55.002;-1.592;2023-12-04T04:07:39;30;29;
82622;PMS5003;72291;55.002;-1.592;2023-12-04T04:10:04;34;32;
82622;PMS5003;72291;55.002;-1.592;2023-12-04T04:12:30;29;27;
82622;PMS5003;72291;55.002;-1.592;2023-12-04T04:14:55;30;30;
82622;PMS5003;72291;55.002;-1.592;2023-12-04T04:17:20;31;27;
82622;PMS5003;72291;55.002;-1.592;2023-12-04T04:19:46;32;30;
82622;PMS5003;72291;55.002;-1.592;2023-12-04T04:22:11;31;29;
82622;PMS5003;72291;55.002;-1.592;2023-12-04T04:24:36;30;27;
82622;PMS5003;72291;55.002;-1.592;2023-12-04T04:27:01;28;26;
82622;PMS5003;72291;55.002;-1.592;2023-12-04T04:29:27;31;30;
82622;PMS5003;72291;55.002;-1.592;2023-12-04T04:31:52;24;24;
82622;PMS5003;72291;55.002;-1.592;2023-12-04T04:34:19;26;24;
82622;PMS5003;72291;55.002;-1.592;2023-12-04T04:36:43;23;22;
82622;PMS5003;72291;55.002;-1.592;2023-12-04T04:39:11;28;27;
82622;PMS5003;72291;55.002;-1.592;2023-12-04T04:41:34;28;27;
82622;PMS5003;72291;55.002;-1.592;2023-12-04T04:44:00;25;22;
82622;PMS5003;72291;55.002;-1.592;2023-12-04T04:46:25;24;23;
82622;PMS5003;72291;55.002;-1.592;2023-12-04T04:48:51;24;23;
82622;PMS5003;72291;55.002;-1.592;2023-12-04T04:51:17;24;24;
82622;PMS5003;72291;55.002;-1.592;2023-12-04T04:53:43;22;21;
82622;PMS5003;72291;55.002;-1.592;2023-12-04T04:56:14;24;22;
82622;PMS5003;72291;55.002;-1.592;2023-12-04T04:58:34;20;19;
82622;PMS5003;72291;55.002;-1.592;2023-12-04T05:00:59;20;20;
82622;PMS5003;72291;55.002;-1.592;2023-12-04T05:03:24;27;25;
82622;PMS5003;72291;55.002;-1.592;2023-12-04T05:05:50;20;19;
82622;PMS5003;72291;55.002;-1.592;2023-12-04T05:08:15;24;21;
82622;PMS5003;72291;55.002;-1.592;2023-12-04T05:10:41;19;18;
82622;PMS5003;72291;55.002;-1.592;2023-12-04T05:13:07;20;18;
82622;PMS5003;72291;55.002;-1.592;2023-12-04T05:15:33;22;20;
82622;PMS5003;72291;55.002;-1.592;2023-12-04T05:17:59;21;21;
82622;PMS5003;72291;55.002;-1.592;2023-12-04T05:20:24;20;18;
82622;PMS5003;72291;55.002;-1.592;2023-12-04T05:22:50;18;18;
82622;PMS5003;72291;55.002;-1.592;2023-12-04T05:25:15;24;21;
82622;PMS5003;72291;55.002;-1.592;2023-12-04T05:27:41;17;15;
82622;PMS5003;72291;55.002;-1.592;2023-12-04T05:30:07;20;20;
82622;PMS5003;72291;55.002;-1.592;2023-12-04T05:32:32;23;22;
82622;PMS5003;72291;55.002;-1.592;2023-12-04T05:34:57;19;17;
82622;PMS5003;72291;55.002;-1.592;2023-12-04T05:37:23;16;15;
82622;PMS5003;72291;55.002;-1.592;2023-12-04T05:39:48;16;15;
82622;PMS5003;72291;55.002;-1.592;2023-12-04T05:42:14;19;19;
82622;PMS5003;72291;55.002;-1.592;2023-12-04T05:44:40;18;16;
82622;PMS5003;72291;55.002;-1.592;2023-12-04T05:47:05;15;14;
82622;PMS5003;72291;55.002;-1.592;2023-12-04T05:49:30;15;13;
82622;PMS5003;72291;55.002;-1.592;2023-12-04T05:51:56;16;15;
82622;PMS5003;72291;55.002;-1.592;2023-12-04T05:54:21;19;15;
82622;PMS5003;72291;55.002;-1.592;2023-12-04T05:56:46;18;16;
82622;PMS5003;72291;55.002;-1.592;2023-12-04T05:59:13;15;13;
82622;PMS5003;72291;55.002;-1.592;2023-12-04T06:01:37;18;17;
82622;PMS5003;72291;55.002;-1.592;2023-12-04T06:04:03;14;13;
82622;PMS5003;72291;55.002;-1.592;2023-12-04T06:06:29;17;15;
82622;PMS5003;72291;55.002;-1.592;2023-12-04T06:08:54;10;9;
82622;PMS5003;72291;55.002;-1.592;2023-12-04T06:11:19;13;13;
82622;PMS5003;72291;55.002;-1.592;2023-12-04T06:13:45;11;9;
82622;PMS5003;72291;55.002;-1.592;2023-12-04T06:16:10;10;9;
82622;PMS5003;72291;55.002;-1.592;2023-12-04T06:18:35;8;6;
82622;PMS5003;72291;55.002;-1.592;2023-12-04T06:21:01;3;2;
82622;PMS5003;72291;55.002;-1.592;2023-12-04T06:23:26;1;0;
82622;PMS5003;72291;55.002;-1.592;2023-12-04T06:25:51;0;0;
82622;PMS5003;72291;55.002;-1.592;2023-12-04T06:28:17;2;1;
82622;PMS5003;72291;55.002;-1.592;2023-12-04T06:30:43;3;1;
82622;PMS5003;72291;55.002;-1.592;2023-12-04T06:33:08;2;1;
82622;PMS5003;72291;55.002;-1.592;2023-12-04T06:35:33;2;1;
82622;PMS5003;72291;55.002;-1.592;2023-12-04T06:37:59;3;2;
82622;PMS5003;72291;55.002;-1.592;2023-12-04T06:40:24;3;0;
82622;PMS5003;72291;55.002;-1.592;2023-12-04T06:42:49;2;0;
82622;PMS5003;72291;55.002;-1.592;2023-12-04T06:45:14;2;1;
82622;PMS5003;72291;55.002;-1.592;2023-12-04T06:47:40;2;1;
82622;PMS5003;72291;55.002;-1.592;2023-12-04T06:50:05;2;2;
82622;PMS5003;72291;55.002;-1.592;2023-12-04T06:52:30;1;1;
82622;PMS5003;72291;55.002;-1.592;2023-12-04T06:54:56;2;1;
82622;PMS5003;72291;55.002;-1.592;2023-12-04T06:57:21;2;0;
82622;PMS5003;72291;55.002;-1.592;2023-12-04T06:59:46;1;0;
82622;PMS5003;72291;55.002;-1.592;2023-12-04T07:02:11;1;0;
82622;PMS5003;72291;55.002;-1.592;2023-12-04T07:04:36;2;2;
82622;PMS5003;72291;55.002;-1.592;2023-12-04T07:07:02;1;0;
82622;PMS5003;72291;55.002;-1.592;2023-12-04T07:09:27;4;2;
82622;PMS5003;72291;55.002;-1.592;2023-12-04T07:11:52;2;2;
82622;PMS5003;72291;55.002;-1.592;2023-12-04T07:14:17;1;0;
82622;PMS5003;72291;55.002;-1.592;2023-12-04T07:16:43;8;7;
82622;PMS5003;72291;55.002;-1.592;2023-12-04T07:19:13;1;1;
82622;PMS5003;72291;55.002;-1.592;2023-12-04T07:21:34;0;0;
82622;PMS5003;72291;55.002;-1.592;2023-12-04T07:23:59;4;1;
82622;PMS5003;72291;55.002;-1.592;2023-12-04T07:26:25;3;1;
82622;PMS5003;72291;55.002;-1.592;2023-12-04T07:28:50;1;0;
82622;PMS5003;72291;55.002;-1.592;2023-12-04T07:31:16;2;0;
82622;PMS5003;72291;55.002;-1.592;2023-12-04T07:33:41;1;0;
82622;PMS5003;72291;55.002;-1.592;2023-12-04T07:36:07;4;4;
82622;PMS5003;72291;55.002;-1.592;2023-12-04T07:38:32;0;0;
82622;PMS5003;72291;55.002;-1.592;2023-12-04T07:40:57;1;0;
82622;PMS5003;72291;55.002;-1.592;2023-12-04T07:43:23;4;2;
82622;PMS5003;72291;55.002;-1.592;2023-12-04T07:45:49;4;3;
82622;PMS5003;72291;55.002;-1.592;2023-12-04T07:48:14;1;1;
82622;PMS5003;72291;55.002;-1.592;2023-12-04T07:50:39;1;0;
82622;PMS5003;72291;55.002;-1.592;2023-12-04T07:53:04;0;0;
82622;PMS5003;72291;55.002;-1.592;2023-12-04T07:55:30;5;0;
82622;PMS5003;72291;55.002;-1.592;2023-12-04T07:57:55;3;1;
82622;PMS5003;72291;55.002;-1.592;2023-12-04T08:00:20;5;2;
82622;PMS5003;72291;55.002;-1.592;2023-12-04T08:02:46;0;0;
82622;PMS5003;72291;55.002;-1.592;2023-12-04T08:05:11;1;1;
82622;PMS5003;72291;55.002;-1.592;2023-12-04T08:07:36;1;0;
82622;PMS5003;72291;55.002;-1.592;2023-12-04T08:10:02;1;0;
82622;PMS5003;72291;55.002;-1.592;2023-12-04T08:12:27;2;0;
82622;PMS5003;72291;55.002;-1.592;2023-12-04T08:14:52;1;0;
82622;PMS5003;72291;55.002;-1.592;2023-12-04T08:17:18;2;0;
82622;PMS5003;72291;55.002;-1.592;2023-12-04T08:19:44;1;0;
82622;PMS5003;72291;55.002;-1.592;2023-12-04T08:22:09;3;1;
82622;PMS5003;72291;55.002;-1.592;2023-12-04T08:24:33;0;0;
82622;PMS5003;72291;55.002;-1.592;2023-12-04T08:26:58;2;0;
82622;PMS5003;72291;55.002;-1.592;2023-12-04T08:29:24;3;1;
82622;PMS5003;72291;55.002;-1.592;2023-12-04T08:31:49;3;2;
82622;PMS5003;72291;55.002;-1.592;2023-12-04T08:34:14;1;0;
82622;PMS5003;72291;55.002;-1.592;2023-12-04T08:36:39;0;0;
82622;PMS5003;72291;55.002;-1.592;2023-12-04T08:39:04;1;0;
82622;PMS5003;72291;55.002;-1.592;2023-12-04T08:41:30;5;0;
82622;PMS5003;72291;55.002;-1.592;2023-12-04T08:43:55;1;0;
82622;PMS5003;72291;55.002;-1.592;2023-12-04T08:46:20;2;0;
82622;PMS5003;72291;55.002;-1.592;2023-12-04T08:48:46;3;2;
82622;PMS5003;72291;55.002;-1.592;2023-12-04T08:51:15;1;0;
82622;PMS5003;72291;55.002;-1.592;2023-12-04T08:53:36;2;1;
82622;PMS5003;72291;55.002;-1.592;2023-12-04T08:56:02;5;3;
82622;PMS5003;72291;55.002;-1.592;2023-12-04T08:58:27;1;0;
82622;PMS5003;72291;55.002;-1.592;2023-12-04T09:00:52;0;0;
82622;PMS5003;72291;55.002;-1.592;2023-12-04T09:03:17;5;2;
82622;PMS5003;72291;55.002;-1.592;2023-12-04T09:05:43;2;0;
82622;PMS5003;72291;55.002;-1.592;2023-12-04T09:08:09;3;1;
82622;PMS5003;72291;55.002;-1.592;2023-12-04T09:10:34;1;0;
82622;PMS5003;72291;55.002;-1.592;2023-12-04T09:12:59;7;7;
82622;PMS5003;72291;55.002;-1.592;2023-12-04T09:15:25;5;0;
82622;PMS5003;72291;55.002;-1.592;2023-12-04T09:17:50;0;0;
82622;PMS5003;72291;55.002;-1.592;2023-12-04T09:20:16;1;0;
82622;PMS5003;72291;55.002;-1.592;2023-12-04T09:22:41;2;1;
82622;PMS5003;72291;55.002;-1.592;2023-12-04T09:25:06;3;2;
82622;PMS5003;72291;55.002;-1.592;2023-12-04T09:27:32;1;1;
82622;PMS5003;72291;55.002;-1.592;2023-12-04T09:29:57;1;1;
82622;PMS5003;72291;55.002;-1.592;2023-12-04T09:32:28;4;3;
82622;PMS5003;72291;55.002;-1.592;2023-12-04T09:34:47;4;2;
82622;PMS5003;72291;55.002;-1.592;2023-12-04T09:37:12;3;2;
82622;PMS5003;72291;55.002;-1.592;2023-12-04T09:39:38;3;0;
82622;PMS5003;72291;55.002;-1.592;2023-12-04T09:42:03;3;1;
82622;PMS5003;72291;55.002;-1.592;2023-12-04T09:44:28;2;1;
82622;PMS5003;72291;55.002;-1.592;2023-12-04T09:46:53;2;2;
82622;PMS5003;72291;55.002;-1.592;2023-12-04T09:49:18;2;1;
82622;PMS5003;72291;55.002;-1.592;2023-12-04T09:51:44;0;0;
82622;PMS5003;72291;55.002;-1.592;2023-12-04T09:54:09;3;2;
82622;PMS5003;72291;55.002;-1.592;2023-12-04T09:56:34;2;0;
82622;PMS5003;72291;55.002;-1.592;2023-12-04T09:58:59;2;1;
82622;PMS5003;72291;55.002;-1.592;2023-12-04T10:01:25;1;0;
82622;PMS5003;72291;55.002;-1.592;2023-12-04T10:03:49;3;2;
82622;PMS5003;72291;55.002;-1.592;2023-12-04T10:06:15;2;1;
82622;PMS5003;72291;55.002;-1.592;2023-12-04T10:08:45;3;0;
82622;PMS5003;72291;55.002;-1.592;2023-12-04T10:11:06;2;0;
82622;PMS5003;72291;55.002;-1.592;2023-12-04T10:13:31;2;0;
82622;PMS5003;72291;55.002;-1.592;2023-12-04T10:15:56;1;0;
82622;PMS5003;72291;55.002;-1.592;2023-12-04T10:18:25;1;1;
82622;PMS5003;72291;55.002;-1.592;2023-12-04T10:20:51;4;4;
82622;PMS5003;72291;55.002;-1.592;2023-12-04T10:23:12;1;0;
82622;PMS5003;72291;55.002;-1.592;2023-12-04T10:25:37;1;1;
82622;PMS5003;72291;55.002;-1.592;2023-12-04T10:28:07;2;1;
82622;PMS5003;72291;55.002;-1.592;2023-12-04T10:30:28;3;2;
82622;PMS5003;72291;55.002;-1.592;2023-12-04T10:32:54;2;2;
82622;PMS5003;72291;55.002;-1.592;2023-12-04T10:35:18;4;1;
82622;PMS5003;72291;55.002;-1.592;2023-12-04T10:37:44;2;1;
82622;PMS5003;72291;55.002;-1.592;2023-12-04T10:40:10;1;1;
82622;PMS5003;72291;55.002;-1.592;2023-12-04T10:42:34;0;0;
82622;PMS5003;72291;55.002;-1.592;2023-12-04T10:45:00;2;1;
82622;PMS5003;72291;55.002;-1.592;2023-12-04T10:47:25;4;1;
82622;PMS5003;72291;55.002;-1.592;2023-12-04T10:49:50;1;1;
82622;PMS5003;72291;55.002;-1.592;2023-12-04T10:52:16;3;2;
82622;PMS5003;72291;55.002;-1.592;2023-12-04T10:54:41;3;1;
82622;PMS5003;72291;55.002;-1.592;2023-12-04T10:57:07;1;1;
82622;PMS5003;72291;55.002;-1.592;2023-12-04T10:59:32;1;1;
82622;PMS5003;72291;55.002;-1.592;2023-12-04T11:01:57;1;0;
82622;PMS5003;72291;55.002;-1.592;2023-12-04T11:04:23;1;0;
82622;PMS5003;72291;55.002;-1.592;2023-12-04T11:06:48;2;1;
82622;PMS5003;72291;55.002;-1.592;2023-12-04T11:09:13;0;0;
82622;PMS5003;72291;55.002;-1.592;2023-12-04T11:11:40;3;3;
82622;PMS5003;72291;55.002;-1.592;2023-12-04T11:14:04;2;0;
82622;PMS5003;72291;55.002;-1.592;2023-12-04T11:16:31;4;1;
82622;PMS5003;72291;55.002;-1.592;2023-12-04T11:18:55;6;2;
82622;PMS5003;72291;55.002;-1.592;2023-12-04T11:21:24;1;0;
82622;PMS5003;72291;55.002;-1.592;2023-12-04T11:23:45;1;1;
82622;PMS5003;72291;55.002;-1.592;2023-12-04T11:26:10;2;2;
82622;PMS5003;72291;55.002;-1.592;2023-12-04T11:28:36;2;1;
82622;PMS5003;72291;55.002;-1.592;2023-12-04T11:35:52;2;1;
82622;PMS5003;72291;55.002;-1.592;2023-12-04T11:38:17;1;1;
82622;PMS5003;72291;55.002;-1.592;2023-12-04T11:40:42;1;1;
82622;PMS5003;72291;55.002;-1.592;2023-12-04T11:45:33;1;0;
82622;PMS5003;72291;55.002;-1.592;2023-12-04T11:47:58;2;0;
82622;PMS5003;72291;55.002;-1.592;2023-12-04T11:50:24;3;3;
82622;PMS5003;72291;55.002;-1.592;2023-12-04T11:52:49;0;0;
82622;PMS5003;72291;55.002;-1.592;2023-12-04T11:55:16;0;0;
82622;PMS5003;72291;55.002;-1.592;2023-12-04T11:57:40;2;1;
82622;PMS5003;72291;55.002;-1.592;2023-12-04T12:00:11;1;0;
82622;PMS5003;72291;55.002;-1.592;2023-12-04T12:02:30;5;4;
82622;PMS5003;72291;55.002;-1.592;2023-12-04T12:04:56;2;2;
82622;PMS5003;72291;55.002;-1.592;2023-12-04T12:07:21;2;0;
82622;PMS5003;72291;55.002;-1.592;2023-12-04T12:09:46;4;2;
82622;PMS5003;72291;55.002;-1.592;2023-12-04T12:12:12;1;1;
82622;PMS5003;72291;55.002;-1.592;2023-12-04T12:14:37;1;1;
82622;PMS5003;72291;55.002;-1.592;2023-12-04T12:17:02;3;3;
82622;PMS5003;72291;55.002;-1.592;2023-12-04T12:19:27;4;2;
82622;PMS5003;72291;55.002;-1.592;2023-12-04T12:21:52;2;1;
82622;PMS5003;72291;55.002;-1.592;2023-12-04T12:24:17;0;0;
82622;PMS5003;72291;55.002;-1.592;2023-12-04T12:26:42;1;1;
82622;PMS5003;72291;55.002;-1.592;2023-12-04T12:29:08;4;1;
82622;PMS5003;72291;55.002;-1.592;2023-12-04T12:31:33;1;1;
82622;PMS5003;72291;55.002;-1.592;2023-12-04T12:33:58;2;2;
82622;PMS5003;72291;55.002;-1.592;2023-12-04T12:36:23;6;2;
82622;PMS5003;72291;55.002;-1.592;2023-12-04T12:38:48;1;1;
82622;PMS5003;72291;55.002;-1.592;2023-12-04T12:41:13;38;37;
82622;PMS5003;72291;55.002;-1.592;2023-12-04T12:43:39;73;64;
82622;PMS5003;72291;55.002;-1.592;2023-12-04T12:46:05;60;53;
82622;PMS5003;72291;55.002;-1.592;2023-12-04T12:48:30;19;18;
82622;PMS5003;72291;55.002;-1.592;2023-12-04T12:50:56;36;33;
82622;PMS5003;72291;55.002;-1.592;2023-12-04T12:53:22;61;58;
82622;PMS5003;72291;55.002;-1.592;2023-12-04T12:55:48;67;63;
82622;PMS5003;72291;55.002;-1.592;2023-12-04T12:58:13;18;17;
82622;PMS5003;72291;55.002;-1.592;2023-12-04T13:00:39;17;15;
82622;PMS5003;72291;55.002;-1.592;2023-12-04T13:03:05;6;6;
82622;PMS5003;72291;55.002;-1.592;2023-12-04T13:05:29;7;7;
82622;PMS5003;72291;55.002;-1.592;2023-12-04T13:07:55;10;10;
82622;PMS5003;72291;55.002;-1.592;2023-12-04T13:10:20;8;8;
82622;PMS5003;72291;55.002;-1.592;2023-12-04T13:12:45;6;5;
82622;PMS5003;72291;55.002;-1.592;2023-12-04T13:15:10;4;4;
82622;PMS5003;72291;55.002;-1.592;2023-12-04T13:17:35;5;5;
82622;PMS5003;72291;55.002;-1.592;2023-12-04T13:20:00;6;6;
82622;PMS5003;72291;55.002;-1.592;2023-12-04T13:22:26;5;5;
82622;PMS5003;72291;55.002;-1.592;2023-12-04T13:24:51;8;6;
82622;PMS5003;72291;55.002;-1.592;2023-12-04T13:27:16;6;5;
82622;PMS5003;72291;55.002;-1.592;2023-12-04T13:29:41;2;2;
82622;PMS5003;72291;55.002;-1.592;2023-12-04T13:32:06;4;4;
82622;PMS5003;72291;55.002;-1.592;2023-12-04T13:34:31;5;4;
82622;PMS5003;72291;55.002;-1.592;2023-12-04T13:36:57;8;6;
82622;PMS5003;72291;55.002;-1.592;2023-12-04T13:39:22;6;5;
82622;PMS5003;72291;55.002;-1.592;2023-12-04T13:41:47;10;8;
82622;PMS5003;72291;55.002;-1.592;2023-12-04T13:44:12;5;5;
82622;PMS5003;72291;55.002;-1.592;2023-12-04T13:46:37;3;2;
82622;PMS5003;72291;55.002;-1.592;2023-12-04T13:49:03;3;3;
82622;PMS5003;72291;55.002;-1.592;2023-12-04T13:51:28;5;5;
82622;PMS5003;72291;55.002;-1.592;2023-12-04T13:53:58;4;3;
82622;PMS5003;72291;55.002;-1.592;2023-12-04T13:56:19;5;3;
82622;PMS5003;72291;55.002;-1.592;2023-12-04T13:58:43;5;4;
82622;PMS5003;72291;55.002;-1.592;2023-12-04T14:01:11;6;5;
82622;PMS5003;72291;55.002;-1.592;2023-12-04T14:03:33;9;7;
82622;PMS5003;72291;55.002;-1.592;2023-12-04T14:05:59;6;6;
82622;PMS5003;72291;55.002;-1.592;2023-12-04T14:08:24;6;6;
82622;PMS5003;72291;55.002;-1.592;2023-12-04T14:10:49;7;6;
82622;PMS5003;72291;55.002;-1.592;2023-12-04T14:13:14;9;7;
82622;PMS5003;72291;55.002;-1.592;2023-12-04T14:15:39;8;7;
82622;PMS5003;72291;55.002;-1.592;2023-12-04T14:18:05;5;5;
82622;PMS5003;72291;55.002;-1.592;2023-12-04T14:20:30;9;8;
82622;PMS5003;72291;55.002;-1.592;2023-12-04T14:22:55;4;4;
82622;PMS5003;72291;55.002;-1.592;2023-12-04T14:25:20;7;6;
82622;PMS5003;72291;55.002;-1.592;2023-12-04T14:27:45;10;9;
82622;PMS5003;72291;55.002;-1.592;2023-12-04T14:30:10;12;7;
82622;PMS5003;72291;55.002;-1.592;2023-12-04T14:32:36;10;10;
82622;PMS5003;72291;55.002;-1.592;2023-12-04T14:35:01;9;8;
82622;PMS5003;72291;55.002;-1.592;2023-12-04T14:37:27;10;9;
82622;PMS5003;72291;55.002;-1.592;2023-12-04T14:39:52;10;9;
82622;PMS5003;72291;55.002;-1.592;2023-12-04T14:42:17;6;6;
82622;PMS5003;72291;55.002;-1.592;2023-12-04T14:44:42;9;7;
82622;PMS5003;72291;55.002;-1.592;2023-12-04T14:47:08;6;6;
82622;PMS5003;72291;55.002;-1.592;2023-12-04T14:49:34;8;6;
82622;PMS5003;72291;55.002;-1.592;2023-12-04T14:51:59;7;7;
82622;PMS5003;72291;55.002;-1.592;2023-12-04T14:54:24;7;6;
82622;PMS5003;72291;55.002;-1.592;2023-12-04T14:56:49;8;7;
82622;PMS5003;72291;55.002;-1.592;2023-12-04T14:59:14;8;8;
82622;PMS5003;72291;55.002;-1.592;2023-12-04T15:01:39;8;8;
82622;PMS5003;72291;55.002;-1.592;2023-12-04T15:04:05;10;7;
82622;PMS5003;72291;55.002;-1.592;2023-12-04T15:06:30;6;4;
82622;PMS5003;72291;55.002;-1.592;2023-12-04T15:08:55;7;6;
82622;PMS5003;72291;55.002;-1.592;2023-12-04T15:11:21;7;6;
82622;PMS5003;72291;55.002;-1.592;2023-12-04T15:13:46;3;3;
82622;PMS5003;72291;55.002;-1.592;2023-12-04T15:16:11;7;6;
82622;PMS5003;72291;55.002;-1.592;2023-12-04T15:18:37;3;3;
82622;PMS5003;72291;55.002;-1.592;2023-12-04T15:21:02;6;6;
82622;PMS5003;72291;55.002;-1.592;2023-12-04T15:23:26;5;5;
82622;PMS5003;72291;55.002;-1.592;2023-12-04T15:25:52;5;4;
82622;PMS5003;72291;55.002;-1.592;2023-12-04T15:28:17;7;5;
82622;PMS5003;72291;55.002;-1.592;2023-12-04T15:30:42;6;5;
82622;PMS5003;72291;55.002;-1.592;2023-12-04T15:33:08;4;4;
82622;PMS5003;72291;55.002;-1.592;2023-12-04T15:35:33;6;6;
82622;PMS5003;72291;55.002;-1.592;2023-12-04T15:37:58;4;4;
82622;PMS5003;72291;55.002;-1.592;2023-12-04T15:40:23;6;5;
82622;PMS5003;72291;55.002;-1.592;2023-12-04T15:42:48;8;6;
82622;PMS5003;72291;55.002;-1.592;2023-12-04T15:45:14;8;6;
82622;PMS5003;72291;55.002;-1.592;2023-12-04T15:47:39;5;4;
82622;PMS5003;72291;55.002;-1.592;2023-12-04T15:50:05;9;5;
82622;PMS5003;72291;55.002;-1.592;2023-12-04T15:52:29;9;7;
82622;PMS5003;72291;55.002;-1.592;2023-12-04T15:54:54;6;5;
82622;PMS5003;72291;55.002;-1.592;2023-12-04T15:57:20;10;8;
82622;PMS5003;72291;55.002;-1.592;2023-12-04T15:59:45;5;5;
82622;PMS5003;72291;55.002;-1.592;2023-12-04T16:02:11;5;3;
82622;PMS5003;72291;55.002;-1.592;2023-12-04T16:04:37;8;5;
82622;PMS5003;72291;55.002;-1.592;2023-12-04T16:07:01;4;4;
82622;PMS5003;72291;55.002;-1.592;2023-12-04T16:09:26;4;3;
82622;PMS5003;72291;55.002;-1.592;2023-12-04T16:11:52;3;2;
82622;PMS5003;72291;55.002;-1.592;2023-12-04T16:14:17;3;3;